sensor_id;sensor_type;location;lat;lon;timestamp;temperature;humidity
7362;DHT22;3721;44.490;11.220;2023-02-15T00:02:00;7.70;80.20
7362;DHT22;3721;44.490;11.220;2023-02-15T00:04:26;7.70;80.40
7362;DHT22;3721;44.490;11.220;2023-02-15T00:07:12;7.80;80.40
7362;DHT22;3721;44.490;11.220;2023-02-15T00:09:38;7.80;80.40
7362;DHT22;3721;44.490;11.220;2023-02-15T00:12:03;7.70;80.30
7362;DHT22;3721;44.490;11.220;2023-02-15T00:14:29;7.70;80.40
7362;DHT22;3721;44.490;11.220;2023-02-15T00:16:55;7.70;80.50
7362;DHT22;3721;44.490;11.220;2023-02-15T00:19:21;7.70;80.50
7362;DHT22;3721;44.490;11.220;2023-02-15T00:21:48;7.70;80.50
7362;DHT22;3721;44.490;11.220;2023-02-15T00:24:16;7.70;80.50
7362;DHT22;3721;44.490;11.220;2023-02-15T00:26:43;7.60;80.40
7362;DHT22;3721;44.490;11.220;2023-02-15T00:29:10;7.60;80.40
7362;DHT22;3721;44.490;11.220;2023-02-15T00:31:37;7.60;80.40
7362;DHT22;3721;44.490;11.220;2023-02-15T00:34:03;7.50;80.30
7362;DHT22;3721;44.490;11.220;2023-02-15T00:36:29;7.50;80.50
7362;DHT22;3721;44.490;11.220;2023-02-15T00:38:56;7.40;80.50
7362;DHT22;3721;44.490;11.220;2023-02-15T00:41:21;7.40;80.70
7362;DHT22;3721;44.490;11.220;2023-02-15T00:43:47;7.40;80.70
7362;DHT22;3721;44.490;11.220;2023-02-15T00:46:12;7.40;80.70
7362;DHT22;3721;44.490;11.220;2023-02-15T00:48:38;7.40;80.70
7362;DHT22;3721;44.490;11.220;2023-02-15T00:51:04;7.40;80.90
7362;DHT22;3721;44.490;11.220;2023-02-15T00:53:30;7.40;81.00
7362;DHT22;3721;44.490;11.220;2023-02-15T00:55:56;7.30;80.80
7362;DHT22;3721;44.490;11.220;2023-02-15T00:58:22;7.30;80.70
7362;DHT22;3721;44.490;11.220;2023-02-15T01:00:48;7.20;80.90
7362;DHT22;3721;44.490;11.220;2023-02-15T01:03:15;7.10;81.00
7362;DHT22;3721;44.490;11.220;2023-02-15T01:05:41;7.10;81.40
7362;DHT22;3721;44.490;11.220;2023-02-15T01:08:07;7.10;81.50
7362;DHT22;3721;44.490;11.220;2023-02-15T01:10:33;7.20;81.60
7362;DHT22;3721;44.490;11.220;2023-02-15T01:12:59;7.20;81.60
7362;DHT22;3721;44.490;11.220;2023-02-15T01:15:25;7.20;82.10
7362;DHT22;3721;44.490;11.220;2023-02-15T01:17:51;7.20;81.50
7362;DHT22;3721;44.490;11.220;2023-02-15T01:20:22;7.20;81.50
7362;DHT22;3721;44.490;11.220;2023-02-15T01:22:48;7.20;81.40
7362;DHT22;3721;44.490;11.220;2023-02-15T01:25:16;7.20;81.40
7362;DHT22;3721;44.490;11.220;2023-02-15T01:27:42;7.10;81.30
7362;DHT22;3721;44.490;11.220;2023-02-15T01:30:08;7.10;81.50
7362;DHT22;3721;44.490;11.220;2023-02-15T01:32:34;7.00;81.40
7362;DHT22;3721;44.490;11.220;2023-02-15T01:35:00;7.10;81.50
7362;DHT22;3721;44.490;11.220;2023-02-15T01:37:26;7.10;81.40
7362;DHT22;3721;44.490;11.220;2023-02-15T01:39:51;7.00;81.10
7362;DHT22;3721;44.490;11.220;2023-02-15T01:42:23;7.00;81.10
7362;DHT22;3721;44.490;11.220;2023-02-15T01:44:53;7.00;81.20
7362;DHT22;3721;44.490;11.220;2023-02-15T01:50:21;6.90;81.20
7362;DHT22;3721;44.490;11.220;2023-02-15T01:53:00;6.80;81.20
7362;DHT22;3721;44.490;11.220;2023-02-15T01:55:31;6.80;81.30
7362;DHT22;3721;44.490;11.220;2023-02-15T01:57:58;6.80;81.40
7362;DHT22;3721;44.490;11.220;2023-02-15T02:00:24;6.80;81.60
7362;DHT22;3721;44.490;11.220;2023-02-15T02:02:53;6.80;81.50
7362;DHT22;3721;44.490;11.220;2023-02-15T02:05:19;6.80;81.50
7362;DHT22;3721;44.490;11.220;2023-02-15T02:07:46;6.90;81.50
7362;DHT22;3721;44.490;11.220;2023-02-15T02:10:16;6.90;81.40
7362;DHT22;3721;44.490;11.220;2023-02-15T02:12:44;7.00;81.40
7362;DHT22;3721;44.490;11.220;2023-02-15T02:15:10;7.00;81.30
7362;DHT22;3721;44.490;11.220;2023-02-15T02:34:14;7.10;80.70
7362;DHT22;3721;44.490;11.220;2023-02-15T02:36:57;7.10;80.40
7362;DHT22;3721;44.490;11.220;2023-02-15T02:42:05;7.00;79.90
7362;DHT22;3721;44.490;11.220;2023-02-15T02:44:42;7.00;79.80
7362;DHT22;3721;44.490;11.220;2023-02-15T02:47:21;7.00;79.70
7362;DHT22;3721;44.490;11.220;2023-02-15T02:49:52;7.00;79.70
7362;DHT22;3721;44.490;11.220;2023-02-15T02:55:02;7.00;79.50
7362;DHT22;3721;44.490;11.220;2023-02-15T02:57:31;7.00;79.40
7362;DHT22;3721;44.490;11.220;2023-02-15T02:59:59;6.90;79.30
7362;DHT22;3721;44.490;11.220;2023-02-15T03:02:32;7.00;79.30
7362;DHT22;3721;44.490;11.220;2023-02-15T03:05:03;7.00;79.30
7362;DHT22;3721;44.490;11.220;2023-02-15T03:07:31;7.00;79.20
7362;DHT22;3721;44.490;11.220;2023-02-15T03:10:02;7.00;79.20
7362;DHT22;3721;44.490;11.220;2023-02-15T03:12:37;6.90;79.10
7362;DHT22;3721;44.490;11.220;2023-02-15T03:15:21;6.90;78.90
7362;DHT22;3721;44.490;11.220;2023-02-15T03:17:52;6.90;78.70
7362;DHT22;3721;44.490;11.220;2023-02-15T03:20:33;6.80;79.20
7362;DHT22;3721;44.490;11.220;2023-02-15T03:23:06;6.80;78.90
7362;DHT22;3721;44.490;11.220;2023-02-15T03:25:44;6.70;78.80
7362;DHT22;3721;44.490;11.220;2023-02-15T03:28:17;6.80;79.00
7362;DHT22;3721;44.490;11.220;2023-02-15T03:30:46;6.80;78.90
7362;DHT22;3721;44.490;11.220;2023-02-15T03:33:13;6.80;78.80
7362;DHT22;3721;44.490;11.220;2023-02-15T03:35:50;6.80;78.50
7362;DHT22;3721;44.490;11.220;2023-02-15T03:38:25;6.90;78.40
7362;DHT22;3721;44.490;11.220;2023-02-15T03:40:56;6.90;78.30
7362;DHT22;3721;44.490;11.220;2023-02-15T03:46:41;6.90;78.10
7362;DHT22;3721;44.490;11.220;2023-02-15T03:49:21;6.90;77.90
7362;DHT22;3721;44.490;11.220;2023-02-15T03:51:50;6.90;77.70
7362;DHT22;3721;44.490;11.220;2023-02-15T03:54:27;6.90;77.60
7362;DHT22;3721;44.490;11.220;2023-02-15T03:57:11;6.90;77.50
7362;DHT22;3721;44.490;11.220;2023-02-15T03:59:56;6.80;77.50
7362;DHT22;3721;44.490;11.220;2023-02-15T04:05:11;6.80;77.50
7362;DHT22;3721;44.490;11.220;2023-02-15T04:07:36;6.80;77.50
7362;DHT22;3721;44.490;11.220;2023-02-15T04:10:02;6.80;77.50
7362;DHT22;3721;44.490;11.220;2023-02-15T04:12:46;6.80;77.40
7362;DHT22;3721;44.490;11.220;2023-02-15T04:15:12;6.90;77.40
7362;DHT22;3721;44.490;11.220;2023-02-15T04:18:03;6.90;77.20
7362;DHT22;3721;44.490;11.220;2023-02-15T04:20:28;6.90;77.30
7362;DHT22;3721;44.490;11.220;2023-02-15T04:23:13;6.90;77.10
7362;DHT22;3721;44.490;11.220;2023-02-15T04:25:57;6.90;77.10
7362;DHT22;3721;44.490;11.220;2023-02-15T04:28:23;6.90;76.90
7362;DHT22;3721;44.490;11.220;2023-02-15T04:30:48;6.90;76.80
7362;DHT22;3721;44.490;11.220;2023-02-15T04:33:14;6.90;76.70
7362;DHT22;3721;44.490;11.220;2023-02-15T04:35:39;6.90;76.60
7362;DHT22;3721;44.490;11.220;2023-02-15T04:38:05;6.90;76.70
7362;DHT22;3721;44.490;11.220;2023-02-15T04:40:31;6.90;76.60
7362;DHT22;3721;44.490;11.220;2023-02-15T04:42:56;6.90;76.40
7362;DHT22;3721;44.490;11.220;2023-02-15T04:45:22;6.90;76.30
7362;DHT22;3721;44.490;11.220;2023-02-15T04:47:48;6.90;76.30
7362;DHT22;3721;44.490;11.220;2023-02-15T04:50:13;6.90;76.20
7362;DHT22;3721;44.490;11.220;2023-02-15T04:52:39;6.90;76.20
7362;DHT22;3721;44.490;11.220;2023-02-15T04:55:05;6.90;76.10
7362;DHT22;3721;44.490;11.220;2023-02-15T04:57:31;6.90;76.10
7362;DHT22;3721;44.490;11.220;2023-02-15T04:59:56;6.80;76.00
7362;DHT22;3721;44.490;11.220;2023-02-15T05:02:24;6.80;76.10
7362;DHT22;3721;44.490;11.220;2023-02-15T05:04:50;6.70;76.10
7362;DHT22;3721;44.490;11.220;2023-02-15T05:07:15;6.70;76.20
7362;DHT22;3721;44.490;11.220;2023-02-15T05:09:41;6.70;76.10
7362;DHT22;3721;44.490;11.220;2023-02-15T05:12:07;6.60;76.10
7362;DHT22;3721;44.490;11.220;2023-02-15T05:14:32;6.50;76.30
7362;DHT22;3721;44.490;11.220;2023-02-15T05:16:58;6.50;76.50
7362;DHT22;3721;44.490;11.220;2023-02-15T05:19:27;6.40;76.60
7362;DHT22;3721;44.490;11.220;2023-02-15T05:21:52;6.40;76.70
7362;DHT22;3721;44.490;11.220;2023-02-15T05:24:18;6.40;76.80
7362;DHT22;3721;44.490;11.220;2023-02-15T05:27:02;6.40;76.90
7362;DHT22;3721;44.490;11.220;2023-02-15T05:29:46;6.40;77.00
7362;DHT22;3721;44.490;11.220;2023-02-15T05:32:13;6.30;77.10
7362;DHT22;3721;44.490;11.220;2023-02-15T05:34:39;6.30;77.10
7362;DHT22;3721;44.490;11.220;2023-02-15T05:37:05;6.30;77.10
7362;DHT22;3721;44.490;11.220;2023-02-15T05:39:30;6.30;77.10
7362;DHT22;3721;44.490;11.220;2023-02-15T05:42:05;6.30;77.10
7362;DHT22;3721;44.490;11.220;2023-02-15T05:44:31;6.30;77.10
7362;DHT22;3721;44.490;11.220;2023-02-15T05:46:57;6.20;77.20
7362;DHT22;3721;44.490;11.220;2023-02-15T05:49:25;6.20;77.20
7362;DHT22;3721;44.490;11.220;2023-02-15T05:51:51;6.20;77.30
7362;DHT22;3721;44.490;11.220;2023-02-15T05:54:16;6.10;77.30
7362;DHT22;3721;44.490;11.220;2023-02-15T05:56:42;6.10;77.40
7362;DHT22;3721;44.490;11.220;2023-02-15T05:59:08;6.10;77.60
7362;DHT22;3721;44.490;11.220;2023-02-15T06:01:33;6.10;77.50
7362;DHT22;3721;44.490;11.220;2023-02-15T06:03:59;6.00;77.70
7362;DHT22;3721;44.490;11.220;2023-02-15T06:06:25;6.10;77.70
7362;DHT22;3721;44.490;11.220;2023-02-15T06:08:50;6.00;77.70
7362;DHT22;3721;44.490;11.220;2023-02-15T06:11:16;6.00;77.80
7362;DHT22;3721;44.490;11.220;2023-02-15T06:13:41;6.00;78.00
7362;DHT22;3721;44.490;11.220;2023-02-15T06:16:07;6.00;78.00
7362;DHT22;3721;44.490;11.220;2023-02-15T06:18:33;6.00;78.10
7362;DHT22;3721;44.490;11.220;2023-02-15T06:20:59;6.00;78.20
7362;DHT22;3721;44.490;11.220;2023-02-15T06:23:25;5.90;78.20
7362;DHT22;3721;44.490;11.220;2023-02-15T06:25:50;5.90;78.40
7362;DHT22;3721;44.490;11.220;2023-02-15T06:28:16;6.00;78.60
7362;DHT22;3721;44.490;11.220;2023-02-15T06:30:41;6.00;78.60
7362;DHT22;3721;44.490;11.220;2023-02-15T06:33:07;6.00;78.60
7362;DHT22;3721;44.490;11.220;2023-02-15T06:35:33;6.00;78.70
7362;DHT22;3721;44.490;11.220;2023-02-15T06:37:58;6.00;78.70
7362;DHT22;3721;44.490;11.220;2023-02-15T06:40:24;6.00;78.80
7362;DHT22;3721;44.490;11.220;2023-02-15T06:42:50;6.10;79.00
7362;DHT22;3721;44.490;11.220;2023-02-15T06:45:15;6.10;79.00
7362;DHT22;3721;44.490;11.220;2023-02-15T06:47:41;6.10;79.00
7362;DHT22;3721;44.490;11.220;2023-02-15T06:50:07;6.10;79.00
7362;DHT22;3721;44.490;11.220;2023-02-15T06:52:33;6.20;79.10
7362;DHT22;3721;44.490;11.220;2023-02-15T06:54:59;6.20;79.00
7362;DHT22;3721;44.490;11.220;2023-02-15T06:57:24;6.20;79.00
7362;DHT22;3721;44.490;11.220;2023-02-15T06:59:50;6.30;79.00
7362;DHT22;3721;44.490;11.220;2023-02-15T07:02:17;6.40;78.90
7362;DHT22;3721;44.490;11.220;2023-02-15T07:04:43;6.50;78.90
7362;DHT22;3721;44.490;11.220;2023-02-15T07:07:09;6.50;78.90
7362;DHT22;3721;44.490;11.220;2023-02-15T07:09:35;6.50;79.00
7362;DHT22;3721;44.490;11.220;2023-02-15T07:12:02;6.60;79.00
7362;DHT22;3721;44.490;11.220;2023-02-15T07:14:46;6.70;79.10
7362;DHT22;3721;44.490;11.220;2023-02-15T07:17:11;6.80;79.10
7362;DHT22;3721;44.490;11.220;2023-02-15T07:19:37;6.90;79.00
7362;DHT22;3721;44.490;11.220;2023-02-15T07:22:03;7.00;78.90
7362;DHT22;3721;44.490;11.220;2023-02-15T07:24:30;7.10;78.90
7362;DHT22;3721;44.490;11.220;2023-02-15T07:26:56;7.20;78.80
7362;DHT22;3721;44.490;11.220;2023-02-15T07:29:23;7.30;78.80
7362;DHT22;3721;44.490;11.220;2023-02-15T07:31:48;7.40;78.90
7362;DHT22;3721;44.490;11.220;2023-02-15T07:34:14;7.50;78.90
7362;DHT22;3721;44.490;11.220;2023-02-15T07:36:41;7.50;78.80
7362;DHT22;3721;44.490;11.220;2023-02-15T07:39:07;7.60;78.90
7362;DHT22;3721;44.490;11.220;2023-02-15T07:41:33;7.70;78.80
7362;DHT22;3721;44.490;11.220;2023-02-15T07:43:58;7.80;78.70
7362;DHT22;3721;44.490;11.220;2023-02-15T07:46:24;7.90;78.80
7362;DHT22;3721;44.490;11.220;2023-02-15T07:48:50;8.00;78.90
7362;DHT22;3721;44.490;11.220;2023-02-15T07:51:15;8.00;78.70
7362;DHT22;3721;44.490;11.220;2023-02-15T07:53:42;8.10;78.80
7362;DHT22;3721;44.490;11.220;2023-02-15T07:56:10;8.20;78.90
7362;DHT22;3721;44.490;11.220;2023-02-15T07:58:37;8.30;78.90
7362;DHT22;3721;44.490;11.220;2023-02-15T08:01:31;8.40;78.80
7362;DHT22;3721;44.490;11.220;2023-02-15T08:03:58;8.50;78.70
7362;DHT22;3721;44.490;11.220;2023-02-15T08:06:27;8.60;78.80
7362;DHT22;3721;44.490;11.220;2023-02-15T08:08:53;8.70;78.60
7362;DHT22;3721;44.490;11.220;2023-02-15T08:13:52;8.90;78.40
7362;DHT22;3721;44.490;11.220;2023-02-15T08:16:46;9.00;78.40
7362;DHT22;3721;44.490;11.220;2023-02-15T08:21:59;9.20;78.30
7362;DHT22;3721;44.490;11.220;2023-02-15T08:24:28;9.30;78.40
7362;DHT22;3721;44.490;11.220;2023-02-15T08:26:54;9.40;78.20
7362;DHT22;3721;44.490;11.220;2023-02-15T08:29:25;9.50;78.00
7362;DHT22;3721;44.490;11.220;2023-02-15T08:32:02;9.60;78.00
7362;DHT22;3721;44.490;11.220;2023-02-15T08:34:31;9.80;77.60
7362;DHT22;3721;44.490;11.220;2023-02-15T08:36:57;9.90;77.30
7362;DHT22;3721;44.490;11.220;2023-02-15T08:39:23;10.00;76.10
7362;DHT22;3721;44.490;11.220;2023-02-15T08:41:48;10.10;75.80
7362;DHT22;3721;44.490;11.220;2023-02-15T08:44:16;10.30;75.40
7362;DHT22;3721;44.490;11.220;2023-02-15T08:46:44;10.40;75.10
7362;DHT22;3721;44.490;11.220;2023-02-15T08:49:13;10.50;74.80
7362;DHT22;3721;44.490;11.220;2023-02-15T08:51:40;10.60;74.50
7362;DHT22;3721;44.490;11.220;2023-02-15T08:54:08;10.70;74.40
7362;DHT22;3721;44.490;11.220;2023-02-15T08:56:39;10.70;74.10
7362;DHT22;3721;44.490;11.220;2023-02-15T08:59:06;10.80;74.20
7362;DHT22;3721;44.490;11.220;2023-02-15T09:01:34;10.70;74.40
7362;DHT22;3721;44.490;11.220;2023-02-15T09:04:02;10.80;75.10
7362;DHT22;3721;44.490;11.220;2023-02-15T09:06:30;10.70;75.30
7362;DHT22;3721;44.490;11.220;2023-02-15T09:08:56;10.70;75.60
7362;DHT22;3721;44.490;11.220;2023-02-15T09:11:27;10.70;75.70
7362;DHT22;3721;44.490;11.220;2023-02-15T09:14:05;10.70;75.70
7362;DHT22;3721;44.490;11.220;2023-02-15T09:16:34;10.80;75.50
7362;DHT22;3721;44.490;11.220;2023-02-15T09:19:00;10.80;75.40
7362;DHT22;3721;44.490;11.220;2023-02-15T09:21:27;10.90;75.50
7362;DHT22;3721;44.490;11.220;2023-02-15T09:23:58;11.00;75.30
7362;DHT22;3721;44.490;11.220;2023-02-15T09:26:25;11.10;74.50
7362;DHT22;3721;44.490;11.220;2023-02-15T09:28:53;11.10;74.10
7362;DHT22;3721;44.490;11.220;2023-02-15T09:31:23;11.10;73.60
7362;DHT22;3721;44.490;11.220;2023-02-15T09:33:49;11.10;73.40
7362;DHT22;3721;44.490;11.220;2023-02-15T09:36:20;11.20;73.20
7362;DHT22;3721;44.490;11.220;2023-02-15T09:38:50;11.10;73.10
7362;DHT22;3721;44.490;11.220;2023-02-15T10:08:22;11.80;71.00
7362;DHT22;3721;44.490;11.220;2023-02-15T10:25:17;11.90;70.80
7362;DHT22;3721;44.490;11.220;2023-02-15T10:27:47;12.00;70.90
7362;DHT22;3721;44.490;11.220;2023-02-15T10:33:07;12.20;70.90
7362;DHT22;3721;44.490;11.220;2023-02-15T10:35:42;12.20;70.70
7362;DHT22;3721;44.490;11.220;2023-02-15T10:38:35;12.00;70.50
7362;DHT22;3721;44.490;11.220;2023-02-15T10:41:25;12.10;70.90
7362;DHT22;3721;44.490;11.220;2023-02-15T10:52:25;12.20;69.70
7362;DHT22;3721;44.490;11.220;2023-02-15T10:58:11;12.40;69.50
7362;DHT22;3721;44.490;11.220;2023-02-15T11:00:53;12.60;68.70
7362;DHT22;3721;44.490;11.220;2023-02-15T11:06:09;12.80;68.10
7362;DHT22;3721;44.490;11.220;2023-02-15T11:08:44;12.80;67.60
7362;DHT22;3721;44.490;11.220;2023-02-15T11:13:54;12.90;67.40
7362;DHT22;3721;44.490;11.220;2023-02-15T11:16:27;12.80;67.40
7362;DHT22;3721;44.490;11.220;2023-02-15T11:19:03;12.70;67.30
7362;DHT22;3721;44.490;11.220;2023-02-15T11:21:37;12.70;67.60
7362;DHT22;3721;44.490;11.220;2023-02-15T11:26:53;12.70;67.60
7362;DHT22;3721;44.490;11.220;2023-02-15T11:31:59;12.70;67.70
7362;DHT22;3721;44.490;11.220;2023-02-15T11:34:38;12.80;67.90
7362;DHT22;3721;44.490;11.220;2023-02-15T11:37:10;12.90;68.00
7362;DHT22;3721;44.490;11.220;2023-02-15T11:39:36;12.90;67.90
7362;DHT22;3721;44.490;11.220;2023-02-15T11:42:09;12.90;68.40
7362;DHT22;3721;44.490;11.220;2023-02-15T11:44:47;12.90;67.40
7362;DHT22;3721;44.490;11.220;2023-02-15T11:47:17;13.00;67.80
7362;DHT22;3721;44.490;11.220;2023-02-15T11:49:44;13.10;67.80
7362;DHT22;3721;44.490;11.220;2023-02-15T11:52:12;13.20;67.90
7362;DHT22;3721;44.490;11.220;2023-02-15T11:54:51;13.30;67.80
7362;DHT22;3721;44.490;11.220;2023-02-15T12:00:13;13.40;67.70
7362;DHT22;3721;44.490;11.220;2023-02-15T12:02:46;13.50;67.50
7362;DHT22;3721;44.490;11.220;2023-02-15T12:05:24;13.50;67.10
7362;DHT22;3721;44.490;11.220;2023-02-15T12:08:01;13.50;67.10
7362;DHT22;3721;44.490;11.220;2023-02-15T12:10:42;13.40;67.20
7362;DHT22;3721;44.490;11.220;2023-02-15T12:13:18;13.50;67.10
7362;DHT22;3721;44.490;11.220;2023-02-15T12:18:37;13.60;67.40
7362;DHT22;3721;44.490;11.220;2023-02-15T12:21:15;13.60;66.60
7362;DHT22;3721;44.490;11.220;2023-02-15T12:23:51;13.70;66.70
7362;DHT22;3721;44.490;11.220;2023-02-15T12:26:28;13.70;66.50
7362;DHT22;3721;44.490;11.220;2023-02-15T12:28:54;13.80;66.50
7362;DHT22;3721;44.490;11.220;2023-02-15T12:31:37;13.80;66.40
7362;DHT22;3721;44.490;11.220;2023-02-15T12:34:17;13.90;66.30
7362;DHT22;3721;44.490;11.220;2023-02-15T12:36:49;13.80;65.80
7362;DHT22;3721;44.490;11.220;2023-02-15T12:39:25;13.80;65.70
7362;DHT22;3721;44.490;11.220;2023-02-15T12:45:19;13.90;65.80
7362;DHT22;3721;44.490;11.220;2023-02-15T12:49:43;13.90;66.00
7362;DHT22;3721;44.490;11.220;2023-02-15T12:54:46;14.20;65.70
7362;DHT22;3721;44.490;11.220;2023-02-15T12:57:22;14.30;65.60
7362;DHT22;3721;44.490;11.220;2023-02-15T13:00:12;14.40;65.50
7362;DHT22;3721;44.490;11.220;2023-02-15T13:02:52;14.40;65.30
7362;DHT22;3721;44.490;11.220;2023-02-15T13:05:40;14.40;64.70
7362;DHT22;3721;44.490;11.220;2023-02-15T13:08:16;14.50;65.40
7362;DHT22;3721;44.490;11.220;2023-02-15T13:10:52;14.50;65.40
7362;DHT22;3721;44.490;11.220;2023-02-15T13:13:23;14.50;65.50
7362;DHT22;3721;44.490;11.220;2023-02-15T13:15:56;14.50;65.40
7362;DHT22;3721;44.490;11.220;2023-02-15T13:18:30;14.50;65.10
7362;DHT22;3721;44.490;11.220;2023-02-15T13:20:57;14.60;65.00
7362;DHT22;3721;44.490;11.220;2023-02-15T13:23:28;14.50;64.50
7362;DHT22;3721;44.490;11.220;2023-02-15T13:25:59;14.50;64.30
7362;DHT22;3721;44.490;11.220;2023-02-15T13:28:39;14.40;64.20
7362;DHT22;3721;44.490;11.220;2023-02-15T13:31:13;14.30;64.00
7362;DHT22;3721;44.490;11.220;2023-02-15T13:33:49;14.30;64.00
7362;DHT22;3721;44.490;11.220;2023-02-15T13:36:56;14.30;64.80
7362;DHT22;3721;44.490;11.220;2023-02-15T13:42:24;14.30;64.00
7362;DHT22;3721;44.490;11.220;2023-02-15T14:08:08;14.70;63.80
7362;DHT22;3721;44.490;11.220;2023-02-15T14:13:38;14.80;63.80
7362;DHT22;3721;44.490;11.220;2023-02-15T14:18:46;15.00;63.60
7362;DHT22;3721;44.490;11.220;2023-02-15T14:21:38;15.00;63.40
7362;DHT22;3721;44.490;11.220;2023-02-15T14:24:33;15.00;63.20
7362;DHT22;3721;44.490;11.220;2023-02-15T14:27:18;14.90;62.80
7362;DHT22;3721;44.490;11.220;2023-02-15T14:32:43;14.80;63.80
7362;DHT22;3721;44.490;11.220;2023-02-15T14:40:56;15.00;62.80
7362;DHT22;3721;44.490;11.220;2023-02-15T15:22:50;15.00;62.20
7362;DHT22;3721;44.490;11.220;2023-02-15T15:25:47;15.10;62.10
7362;DHT22;3721;44.490;11.220;2023-02-15T15:31:18;15.10;61.90
7362;DHT22;3721;44.490;11.220;2023-02-15T15:42:57;15.30;61.10
7362;DHT22;3721;44.490;11.220;2023-02-15T15:48:33;15.30;61.00
7362;DHT22;3721;44.490;11.220;2023-02-15T15:51:41;15.20;60.90
7362;DHT22;3721;44.490;11.220;2023-02-15T15:54:17;15.20;61.10
7362;DHT22;3721;44.490;11.220;2023-02-15T15:56:58;15.20;61.20
7362;DHT22;3721;44.490;11.220;2023-02-15T15:59:31;15.10;61.20
7362;DHT22;3721;44.490;11.220;2023-02-15T16:02:04;15.00;61.20
7362;DHT22;3721;44.490;11.220;2023-02-15T16:04:32;15.00;61.30
7362;DHT22;3721;44.490;11.220;2023-02-15T16:09:41;15.00;61.40
7362;DHT22;3721;44.490;11.220;2023-02-15T16:12:19;15.00;61.40
7362;DHT22;3721;44.490;11.220;2023-02-15T16:14:45;15.10;61.40
7362;DHT22;3721;44.490;11.220;2023-02-15T16:17:28;15.10;61.40
7362;DHT22;3721;44.490;11.220;2023-02-15T16:20:06;15.10;61.50
7362;DHT22;3721;44.490;11.220;2023-02-15T16:22:33;15.10;61.60
7362;DHT22;3721;44.490;11.220;2023-02-15T16:27:47;15.00;62.10
7362;DHT22;3721;44.490;11.220;2023-02-15T16:30:31;14.90;62.80
7362;DHT22;3721;44.490;11.220;2023-02-15T16:35:36;14.70;63.30
7362;DHT22;3721;44.490;11.220;2023-02-15T16:43:16;14.30;64.70
7362;DHT22;3721;44.490;11.220;2023-02-15T16:48:21;14.20;66.20
7362;DHT22;3721;44.490;11.220;2023-02-15T16:50:54;14.10;65.90
7362;DHT22;3721;44.490;11.220;2023-02-15T17:01:21;14.00;66.20
7362;DHT22;3721;44.490;11.220;2023-02-15T17:03:49;13.50;66.80
7362;DHT22;3721;44.490;11.220;2023-02-15T17:06:24;13.40;67.00
7362;DHT22;3721;44.490;11.220;2023-02-15T17:09:06;13.20;67.00
7362;DHT22;3721;44.490;11.220;2023-02-15T17:11:43;13.20;67.30
7362;DHT22;3721;44.490;11.220;2023-02-15T17:16:45;13.00;67.80
7362;DHT22;3721;44.490;11.220;2023-02-15T17:21:48;12.90;68.10
7362;DHT22;3721;44.490;11.220;2023-02-15T17:24:43;12.80;67.80
7362;DHT22;3721;44.490;11.220;2023-02-15T17:27:22;12.70;68.10
7362;DHT22;3721;44.490;11.220;2023-02-15T17:29:52;12.70;68.40
7362;DHT22;3721;44.490;11.220;2023-02-15T17:32:24;12.60;68.40
7362;DHT22;3721;44.490;11.220;2023-02-15T17:37:29;12.40;68.70
7362;DHT22;3721;44.490;11.220;2023-02-15T17:39:56;12.40;68.80
7362;DHT22;3721;44.490;11.220;2023-02-15T17:42:22;12.30;69.00
7362;DHT22;3721;44.490;11.220;2023-02-15T17:44:48;12.20;68.90
7362;DHT22;3721;44.490;11.220;2023-02-15T17:47:20;12.10;68.90
7362;DHT22;3721;44.490;11.220;2023-02-15T17:49:47;12.10;69.20
7362;DHT22;3721;44.490;11.220;2023-02-15T17:52:15;12.10;69.50
7362;DHT22;3721;44.490;11.220;2023-02-15T17:54:42;12.00;69.60
7362;DHT22;3721;44.490;11.220;2023-02-15T17:57:26;12.00;69.70
7362;DHT22;3721;44.490;11.220;2023-02-15T17:59:53;11.90;69.60
7362;DHT22;3721;44.490;11.220;2023-02-15T18:02:51;11.90;69.70
7362;DHT22;3721;44.490;11.220;2023-02-15T18:05:35;11.90;70.10
7362;DHT22;3721;44.490;11.220;2023-02-15T18:08:35;11.80;70.10
7362;DHT22;3721;44.490;11.220;2023-02-15T18:11:19;11.80;70.20
7362;DHT22;3721;44.490;11.220;2023-02-15T18:14:07;11.80;70.30
7362;DHT22;3721;44.490;11.220;2023-02-15T18:16:36;11.80;70.40
7362;DHT22;3721;44.490;11.220;2023-02-15T18:19:04;11.80;70.50
7362;DHT22;3721;44.490;11.220;2023-02-15T18:21:31;11.70;70.50
7362;DHT22;3721;44.490;11.220;2023-02-15T18:23:57;11.70;70.40
7362;DHT22;3721;44.490;11.220;2023-02-15T18:26:25;11.70;70.40
7362;DHT22;3721;44.490;11.220;2023-02-15T18:28:52;11.80;70.70
7362;DHT22;3721;44.490;11.220;2023-02-15T18:31:18;11.70;70.50
7362;DHT22;3721;44.490;11.220;2023-02-15T18:33:47;11.70;70.80
7362;DHT22;3721;44.490;11.220;2023-02-15T18:36:28;11.70;70.60
7362;DHT22;3721;44.490;11.220;2023-02-15T18:38:55;11.60;70.40
7362;DHT22;3721;44.490;11.220;2023-02-15T18:41:21;11.60;70.80
7362;DHT22;3721;44.490;11.220;2023-02-15T18:43:48;11.60;70.60
7362;DHT22;3721;44.490;11.220;2023-02-15T18:46:15;11.50;70.50
7362;DHT22;3721;44.490;11.220;2023-02-15T18:48:41;11.50;70.50
7362;DHT22;3721;44.490;11.220;2023-02-15T18:51:21;11.40;70.70
7362;DHT22;3721;44.490;11.220;2023-02-15T18:53:49;11.30;70.70
7362;DHT22;3721;44.490;11.220;2023-02-15T18:56:18;11.30;70.80
7362;DHT22;3721;44.490;11.220;2023-02-15T18:58:45;11.20;70.60
7362;DHT22;3721;44.490;11.220;2023-02-15T19:01:19;11.20;70.90
7362;DHT22;3721;44.490;11.220;2023-02-15T19:03:47;11.10;70.90
7362;DHT22;3721;44.490;11.220;2023-02-15T19:06:14;11.10;71.20
7362;DHT22;3721;44.490;11.220;2023-02-15T19:08:43;11.00;71.20
7362;DHT22;3721;44.490;11.220;2023-02-15T19:11:21;10.90;71.20
7362;DHT22;3721;44.490;11.220;2023-02-15T19:13:49;10.80;71.30
7362;DHT22;3721;44.490;11.220;2023-02-15T19:16:34;10.80;71.50
7362;DHT22;3721;44.490;11.220;2023-02-15T19:19:00;10.80;71.70
7362;DHT22;3721;44.490;11.220;2023-02-15T19:21:27;10.80;71.90
7362;DHT22;3721;44.490;11.220;2023-02-15T19:26:24;10.70;72.20
7362;DHT22;3721;44.490;11.220;2023-02-15T19:28:51;10.60;72.10
7362;DHT22;3721;44.490;11.220;2023-02-15T19:31:17;10.60;72.10
7362;DHT22;3721;44.490;11.220;2023-02-15T19:33:43;10.60;72.20
7362;DHT22;3721;44.490;11.220;2023-02-15T19:36:18;10.50;72.20
7362;DHT22;3721;44.490;11.220;2023-02-15T19:38:51;10.50;72.60
7362;DHT22;3721;44.490;11.220;2023-02-15T19:41:31;10.40;72.60
7362;DHT22;3721;44.490;11.220;2023-02-15T19:43:58;10.30;72.70
7362;DHT22;3721;44.490;11.220;2023-02-15T19:46:24;10.30;72.80
7362;DHT22;3721;44.490;11.220;2023-02-15T19:48:51;10.20;72.80
7362;DHT22;3721;44.490;11.220;2023-02-15T19:51:21;10.30;73.20
7362;DHT22;3721;44.490;11.220;2023-02-15T19:56:52;10.20;73.20
7362;DHT22;3721;44.490;11.220;2023-02-15T19:59:49;10.10;73.20
7362;DHT22;3721;44.490;11.220;2023-02-15T20:02:35;10.10;73.30
7362;DHT22;3721;44.490;11.220;2023-02-15T20:05:09;10.10;73.30
7362;DHT22;3721;44.490;11.220;2023-02-15T20:07:43;10.10;73.60
7362;DHT22;3721;44.490;11.220;2023-02-15T20:13:17;10.10;73.80
7362;DHT22;3721;44.490;11.220;2023-02-15T20:16:11;10.10;73.90
7362;DHT22;3721;44.490;11.220;2023-02-15T20:18:39;10.10;73.90
7362;DHT22;3721;44.490;11.220;2023-02-15T20:21:29;10.20;74.00
7362;DHT22;3721;44.490;11.220;2023-02-15T20:23:55;10.10;74.00
7362;DHT22;3721;44.490;11.220;2023-02-15T20:26:25;10.20;74.20
7362;DHT22;3721;44.490;11.220;2023-02-15T20:29:02;10.10;74.20
7362;DHT22;3721;44.490;11.220;2023-02-15T20:31:29;10.20;74.40